Time;durP1;ratioP1;P1;durP2;ratioP2;P2;SDS_P1;SDS_P2;PMS_P1;PMS_P2;Temp;Humidity;BMP_temperature;BMP_pressure;BME280_temperature;BME280_humidity;BME280_pressure;Samples;Min_cycle;Max_cycle;Signal;HPM_P1;HPM_P2
2021/07/03 00:01:27;;;;;;;7.35;4.70;;;16.40;99.90;;;;;;5076980;28;20047;-57
2021/07/03 00:03:52;;;;;;;5.93;3.70;;;16.40;99.90;;;;;;5076600;28;20047;-56
2021/07/03 00:06:18;;;;;;;7.50;4.00;;;16.40;99.90;;;;;;5071884;28;20042;-56
2021/07/03 00:08:44;;;;;;;6.00;4.10;;;16.40;99.90;;;;;;5059046;28;20127;-57
2021/07/03 00:11:10;;;;;;;7.25;4.50;;;16.40;99.90;;;;;;5082473;28;20400;-57
2021/07/03 00:13:37;;;;;;;8.27;5.22;;;16.40;99.90;;;;;;5071252;28;20033;-57
2021/07/03 00:16:04;;;;;;;11.45;7.75;;;16.40;99.90;;;;;;5084316;28;20093;-57
2021/07/03 00:18:30;;;;;;;12.90;8.02;;;16.40;99.90;;;;;;5081411;28;20033;-57
2021/07/03 00:20:56;;;;;;;17.13;11.90;;;16.50;99.90;;;;;;5079558;28;20082;-58
2021/07/03 00:23:21;;;;;;;19.75;14.10;;;16.50;99.90;;;;;;5065454;28;20032;-57
2021/07/03 00:25:47;;;;;;;26.70;19.73;;;16.40;99.90;;;;;;5082962;28;20028;-57
2021/07/03 00:28:13;;;;;;;38.65;28.77;;;16.40;99.90;;;;;;5059055;28;20028;-57
2021/07/03 00:30:39;;;;;;;42.78;32.47;;;16.40;99.90;;;;;;5002021;28;20040;-57
2021/07/03 00:33:05;;;;;;;43.63;35.55;;;16.40;99.90;;;;;;5081896;28;20028;-58
2021/07/03 00:35:30;;;;;;;47.63;38.53;;;16.50;99.90;;;;;;5061620;28;20053;-57
2021/07/03 00:37:56;;;;;;;30.80;25.00;;;16.40;99.90;;;;;;5061518;28;20036;-57
2021/07/03 00:40:22;;;;;;;33.00;23.08;;;16.40;99.90;;;;;;5083418;28;20111;-57
2021/07/03 00:42:48;;;;;;;31.85;25.90;;;16.40;99.90;;;;;;5077606;28;20052;-57
2021/07/03 00:45:13;;;;;;;24.00;20.75;;;16.60;99.90;;;;;;5057517;28;20068;-57
2021/07/03 00:47:40;;;;;;;13.95;11.70;;;16.60;99.90;;;;;;5077940;28;20082;-57
2021/07/03 00:50:09;;;;;;;16.48;10.88;;;16.60;99.90;;;;;;5074025;28;20035;-58
2021/07/03 00:52:37;;;;;;;11.20;8.90;;;16.60;99.90;;;;;;5061489;28;20040;-58
2021/07/03 00:55:04;;;;;;;11.10;8.73;;;16.60;99.90;;;;;;5082048;28;20032;-57
2021/07/03 00:57:31;;;;;;;8.73;7.03;;;16.60;99.90;;;;;;5064882;28;20491;-57
2021/07/03 00:59:58;;;;;;;6.93;5.00;;;16.70;99.90;;;;;;5075850;28;20113;-58
2021/07/03 01:02:24;;;;;;;6.80;4.65;;;16.70;99.90;;;;;;5075657;28;20438;-57
2021/07/03 01:04:50;;;;;;;6.85;3.72;;;16.70;99.90;;;;;;5074828;28;20108;-57
2021/07/03 01:07:16;;;;;;;6.05;4.13;;;16.60;99.90;;;;;;5080900;28;20110;-58
2021/07/03 01:09:41;;;;;;;6.82;4.03;;;16.60;99.90;;;;;;5062767;28;20062;-57
2021/07/03 01:12:09;;;;;;;7.55;4.10;;;16.60;99.90;;;;;;5072835;28;20431;-57
2021/07/03 01:14:45;;;;;;;6.53;3.63;;;16.70;99.90;;;;;;5075762;28;20541;-57
2021/07/03 01:17:12;;;;;;;8.60;4.15;;;16.60;99.90;;;;;;5082003;28;20020;-58
2021/07/03 01:19:38;;;;;;;5.95;4.28;;;16.60;99.90;;;;;;5080583;28;20041;-57
2021/07/03 01:22:09;;;;;;;7.78;4.10;;;16.60;99.90;;;;;;5039589;28;20089;-58
2021/07/03 01:24:36;;;;;;;6.38;3.85;;;16.60;99.90;;;;;;5077131;28;20055;-57
2021/07/03 01:27:02;;;;;;;7.70;3.72;;;16.60;99.90;;;;;;5081383;28;20032;-57
2021/07/03 01:29:28;;;;;;;6.35;3.88;;;16.70;99.90;;;;;;5080008;28;20505;-57
2021/07/03 01:31:56;;;;;;;9.05;3.97;;;16.70;99.90;;;;;;5082430;28;20123;-57
2021/07/03 01:34:28;;;;;;;6.75;4.03;;;16.70;99.90;;;;;;5082810;28;20052;-58
2021/07/03 01:36:55;;;;;;;5.90;3.80;;;16.70;99.90;;;;;;5072397;28;20024;-58
2021/07/03 01:39:22;;;;;;;6.63;3.83;;;16.80;99.90;;;;;;5083928;28;20032;-57
2021/07/03 01:41:48;;;;;;;6.00;4.15;;;16.90;99.90;;;;;;5073001;28;20024;-58
2021/07/03 01:44:23;;;;;;;5.43;3.50;;;16.90;99.90;;;;;;5070443;28;20036;-57
2021/07/03 01:46:51;;;;;;;4.85;3.70;;;16.80;99.90;;;;;;5073944;28;20495;-57
2021/07/03 01:49:17;;;;;;;5.32;3.60;;;16.80;99.90;;;;;;5071193;28;20043;-57
2021/07/03 01:51:42;;;;;;;4.80;3.70;;;16.70;99.90;;;;;;5082570;28;20054;-57
2021/07/03 01:54:08;;;;;;;6.68;4.20;;;16.70;99.90;;;;;;5069547;28;20054;-57
2021/07/03 01:56:34;;;;;;;6.90;4.05;;;16.80;99.90;;;;;;5061155;28;20503;-57
2021/07/03 01:59:03;;;;;;;8.10;3.20;;;16.80;99.90;;;;;;5079218;28;20143;-57
2021/07/03 02:01:29;;;;;;;4.45;3.30;;;16.80;99.90;;;;;;5075032;28;20376;-58
2021/07/03 02:03:55;;;;;;;4.40;3.78;;;16.90;99.90;;;;;;5067160;28;20036;-57
2021/07/03 02:06:20;;;;;;;5.68;3.63;;;16.80;99.90;;;;;;5024595;28;20040;-57
2021/07/03 02:08:46;;;;;;;7.38;3.38;;;16.80;99.90;;;;;;5077329;28;20476;-57
2021/07/03 02:11:12;;;;;;;5.15;3.92;;;16.90;99.90;;;;;;5077539;28;20119;-57
2021/07/03 02:13:38;;;;;;;4.68;3.58;;;16.70;99.90;;;;;;5010415;28;20032;-58
2021/07/03 02:16:04;;;;;;;7.00;3.67;;;16.70;99.90;;;;;;5072967;28;20471;-57
2021/07/03 02:18:29;;;;;;;6.00;3.83;;;16.70;99.90;;;;;;5055410;28;20052;-57
2021/07/03 02:20:55;;;;;;;6.68;4.05;;;16.60;99.90;;;;;;5075658;28;20025;-57
2021/07/03 02:23:21;;;;;;;9.55;4.00;;;16.40;99.90;;;;;;5078331;28;20028;-58
2021/07/03 02:25:47;;;;;;;5.20;3.65;;;16.30;99.90;;;;;;5082267;28;20028;-57
2021/07/03 02:28:15;;;;;;;7.70;4.07;;;16.30;99.90;;;;;;5072300;28;20046;-57
2021/07/03 02:30:42;;;;;;;7.43;3.60;;;16.20;99.90;;;;;;5071497;28;20056;-58
2021/07/03 02:33:08;;;;;;;5.05;3.40;;;16.10;99.90;;;;;;5073106;28;20063;-57
2021/07/03 02:35:34;;;;;;;4.88;3.30;;;16.10;99.90;;;;;;5070897;28;20399;-57
2021/07/03 02:38:00;;;;;;;4.97;3.22;;;16.10;99.90;;;;;;5082365;28;20435;-57
2021/07/03 02:40:27;;;;;;;4.78;3.85;;;16.00;99.90;;;;;;5080811;28;20058;-57
2021/07/03 02:42:53;;;;;;;5.80;3.45;;;16.00;99.90;;;;;;5073209;28;20045;-57
2021/07/03 02:45:20;;;;;;;4.68;2.95;;;16.00;99.90;;;;;;5076355;28;20028;-58
2021/07/03 02:47:46;;;;;;;5.75;3.70;;;16.00;99.90;;;;;;5077954;28;20032;-57
2021/07/03 02:50:15;;;;;;;5.40;3.97;;;15.90;99.90;;;;;;5079639;28;20032;-57
2021/07/03 02:52:42;;;;;;;4.43;3.67;;;15.90;99.90;;;;;;5078601;28;20442;-57
2021/07/03 02:55:08;;;;;;;10.15;4.18;;;15.80;99.90;;;;;;5079232;28;20028;-58
2021/07/03 02:57:34;;;;;;;9.00;3.85;;;15.80;99.90;;;;;;5084425;28;20028;-57
2021/07/03 03:00:00;;;;;;;5.05;3.65;;;15.80;99.90;;;;;;5031058;28;20534;-57
2021/07/03 03:02:26;;;;;;;5.72;4.22;;;15.70;99.90;;;;;;5082671;28;20020;-57
2021/07/03 03:04:51;;;;;;;6.57;4.07;;;15.70;99.90;;;;;;5028650;28;20033;-58
2021/07/03 03:07:17;;;;;;;7.80;3.80;;;15.70;99.90;;;;;;5036194;28;20073;-57
2021/07/03 03:09:43;;;;;;;5.45;3.88;;;15.70;99.90;;;;;;5081212;28;20052;-58
2021/07/03 03:12:09;;;;;;;5.07;3.50;;;15.70;99.90;;;;;;5078624;28;20463;-57
2021/07/03 03:14:35;;;;;;;5.57;3.90;;;15.60;99.90;;;;;;5055786;28;20119;-57
2021/07/03 03:17:01;;;;;;;6.25;3.72;;;15.60;99.90;;;;;;5054583;28;20024;-57
2021/07/03 03:19:27;;;;;;;5.38;4.35;;;15.60;99.90;;;;;;5084277;28;20111;-57
2021/07/03 03:21:52;;;;;;;6.25;4.03;;;15.50;99.90;;;;;;5078190;28;20451;-57
2021/07/03 03:24:19;;;;;;;7.93;4.03;;;15.40;99.90;;;;;;5065207;28;20043;-57
2021/07/03 03:26:45;;;;;;;6.32;4.40;;;15.50;99.90;;;;;;5086287;28;20028;-58
2021/07/03 03:29:10;;;;;;;5.47;4.40;;;15.50;99.90;;;;;;5076402;28;20024;-57
2021/07/03 03:31:36;;;;;;;6.47;3.90;;;15.40;99.90;;;;;;5076357;28;20040;-57
2021/07/03 03:34:02;;;;;;;5.60;4.00;;;15.50;99.90;;;;;;5085155;28;20038;-57
2021/07/03 03:36:28;;;;;;;5.93;4.40;;;15.60;99.90;;;;;;5067949;28;20033;-57
2021/07/03 03:38:54;;;;;;;6.85;4.10;;;15.70;99.90;;;;;;5088770;28;20116;-57
2021/07/03 03:41:20;;;;;;;8.20;4.63;;;15.70;99.90;;;;;;5079534;28;20531;-57
2021/07/03 03:43:46;;;;;;;8.25;4.13;;;15.80;99.90;;;;;;5078084;28;20098;-57
2021/07/03 03:46:12;;;;;;;7.88;4.25;;;15.80;99.90;;;;;;5078957;28;20471;-57
2021/07/03 03:48:38;;;;;;;7.07;3.83;;;15.90;99.90;;;;;;5052682;28;20499;-57
2021/07/03 03:51:04;;;;;;;5.90;3.83;;;15.90;99.90;;;;;;5068085;28;20082;-57
2021/07/03 03:53:30;;;;;;;7.65;4.10;;;16.00;99.90;;;;;;5065349;28;20036;-58
2021/07/03 03:55:56;;;;;;;5.00;3.72;;;16.10;99.90;;;;;;5077591;28;20360;-58
2021/07/03 03:58:21;;;;;;;5.75;4.00;;;16.10;99.90;;;;;;5067779;28;20077;-58
2021/07/03 04:00:47;;;;;;;4.88;3.65;;;16.10;99.90;;;;;;5059105;28;20036;-57
2021/07/03 04:03:13;;;;;;;6.78;3.75;;;16.20;99.90;;;;;;5071618;28;20039;-57
2021/07/03 04:05:39;;;;;;;4.97;3.60;;;16.20;99.90;;;;;;5073626;28;20079;-58
2021/07/03 04:08:05;;;;;;;5.10;3.65;;;16.20;99.90;;;;;;5081579;28;20147;-57
2021/07/03 04:10:31;;;;;;;4.97;3.42;;;16.30;99.90;;;;;;5075100;28;20078;-58
2021/07/03 04:12:57;;;;;;;7.05;3.55;;;16.40;99.90;;;;;;5086840;28;20482;-57
2021/07/03 04:15:23;;;;;;;3.75;3.10;;;16.60;99.90;;;;;;5079719;28;20094;-57
2021/07/03 04:17:49;;;;;;;3.50;2.70;;;16.70;99.90;;;;;;5078557;28;20024;-57
2021/07/03 04:20:14;;;;;;;3.45;2.67;;;16.70;99.90;;;;;;5057348;28;20044;-57
2021/07/03 04:22:41;;;;;;;4.00;2.67;;;16.80;99.90;;;;;;5074201;28;20047;-57
2021/07/03 04:25:11;;;;;;;4.40;2.60;;;16.90;99.90;;;;;;5083601;28;20056;-58
2021/07/03 04:27:37;;;;;;;5.75;2.83;;;17.00;99.90;;;;;;5074007;28;20028;-58
2021/07/03 04:30:07;;;;;;;3.78;2.47;;;17.10;99.90;;;;;;5080371;28;20097;-58
2021/07/03 04:32:33;;;;;;;5.30;2.88;;;17.20;99.90;;;;;;5081868;28;20029;-58
2021/07/03 04:34:59;;;;;;;4.13;2.80;;;17.20;99.90;;;;;;5076075;28;20125;-57
2021/07/03 04:37:25;;;;;;;3.42;2.17;;;17.40;99.90;;;;;;5071877;28;20377;-57
2021/07/03 04:39:50;;;;;;;6.03;3.05;;;17.40;99.90;;;;;;5072218;28;20032;-58
2021/07/03 04:42:16;;;;;;;5.43;2.45;;;17.60;99.90;;;;;;5057488;28;20067;-58
2021/07/03 04:44:42;;;;;;;3.38;2.50;;;17.70;99.90;;;;;;5080254;28;20091;-57
2021/07/03 04:47:07;;;;;;;4.22;2.35;;;17.90;99.90;;;;;;5078664;28;20391;-60
2021/07/03 04:49:33;;;;;;;4.10;2.50;;;18.10;99.90;;;;;;5079403;28;20070;-62
2021/07/03 04:52:00;;;;;;;2.60;2.00;;;18.30;99.90;;;;;;5063725;28;20477;-61
2021/07/03 04:54:27;;;;;;;5.78;2.22;;;18.30;99.90;;;;;;5086861;28;20074;-60
2021/07/03 04:57:06;;;;;;;3.65;2.03;;;18.30;99.90;;;;;;5092018;28;20162;-61
2021/07/03 04:59:36;;;;;;;2.95;2.20;;;18.30;99.90;;;;;;5088114;28;20106;-59
2021/07/03 05:02:03;;;;;;;2.58;2.20;;;18.00;99.90;;;;;;5075022;28;20071;-60
2021/07/03 05:04:29;;;;;;;2.97;2.15;;;18.00;99.90;;;;;;5091279;28;20043;-61
2021/07/03 05:06:55;;;;;;;2.85;2.13;;;18.20;99.90;;;;;;5070874;28;20036;-61
2021/07/03 05:09:20;;;;;;;2.78;1.92;;;18.30;99.90;;;;;;5093955;28;20051;-60
2021/07/03 05:11:46;;;;;;;2.30;2.10;;;18.40;99.90;;;;;;5094871;28;20039;-60
2021/07/03 05:14:12;;;;;;;7.18;2.20;;;18.50;99.90;;;;;;5094398;28;20158;-60
2021/07/03 05:16:37;;;;;;;2.63;1.95;;;18.70;99.90;;;;;;5057939;28;20024;-61
2021/07/03 05:19:03;;;;;;;3.00;2.33;;;19.00;99.90;;;;;;5096076;28;20071;-60
2021/07/03 05:21:29;;;;;;;6.13;2.78;;;19.00;99.90;;;;;;5073521;28;20032;-60
2021/07/03 05:23:55;;;;;;;2.67;2.00;;;19.00;99.90;;;;;;5095941;28;20586;-61
2021/07/03 05:26:20;;;;;;;4.05;2.22;;;19.00;99.90;;;;;;5066905;28;20068;-60
2021/07/03 05:28:46;;;;;;;5.35;2.30;;;19.10;99.90;;;;;;5077961;28;20077;-58
2021/07/03 05:31:12;;;;;;;4.85;2.53;;;19.20;99.90;;;;;;5075957;28;20028;-58
2021/07/03 05:33:38;;;;;;;3.33;2.10;;;19.30;99.90;;;;;;5077813;28;20040;-60
2021/07/03 05:36:04;;;;;;;2.65;2.08;;;19.50;99.90;;;;;;5073417;28;20059;-60
2021/07/03 05:38:30;;;;;;;2.15;1.83;;;19.50;99.90;;;;;;5070915;28;20045;-61
2021/07/03 05:40:59;;;;;;;2.65;2.28;;;19.40;99.90;;;;;;5070513;28;20055;-61
2021/07/03 05:43:27;;;;;;;2.90;2.50;;;19.50;99.90;;;;;;5069530;28;20052;-59
2021/07/03 05:45:52;;;;;;;4.13;3.20;;;19.40;99.90;;;;;;5076569;28;20024;-60
2021/07/03 05:48:18;;;;;;;4.50;2.38;;;19.40;99.90;;;;;;5044637;28;20028;-59
2021/07/03 05:50:44;;;;;;;3.30;2.40;;;19.50;99.90;;;;;;5076195;28;20041;-58
2021/07/03 05:53:10;;;;;;;2.65;2.03;;;19.40;99.90;;;;;;5072161;28;20086;-58
2021/07/03 05:55:36;;;;;;;5.93;2.40;;;19.50;99.90;;;;;;5065147;28;20031;-60
2021/07/03 05:58:01;;;;;;;3.65;2.45;;;19.60;99.90;;;;;;5070759;28;20062;-60
2021/07/03 06:00:27;;;;;;;3.17;2.28;;;19.60;99.90;;;;;;5068618;28;20700;-61
2021/07/03 06:02:53;;;;;;;4.45;2.47;;;19.60;99.90;;;;;;5061232;28;20143;-60
2021/07/03 06:05:19;;;;;;;2.88;2.20;;;19.60;99.90;;;;;;5077911;28;20055;-60
2021/07/03 06:07:44;;;;;;;3.70;2.40;;;19.80;99.90;;;;;;5069032;28;20036;-62
2021/07/03 06:10:11;;;;;;;2.50;2.20;;;19.90;99.90;;;;;;5067363;28;20122;-60
2021/07/03 06:12:37;;;;;;;2.80;2.28;;;19.70;99.90;;;;;;5067076;28;20098;-62
2021/07/03 06:15:05;;;;;;;3.13;2.45;;;19.90;99.90;;;;;;5072432;28;20415;-60
2021/07/03 06:17:31;;;;;;;3.38;2.40;;;19.90;99.90;;;;;;5069963;28;20360;-61
2021/07/03 06:19:57;;;;;;;4.18;2.35;;;20.20;99.90;;;;;;5083215;28;20031;-58
2021/07/03 06:22:23;;;;;;;2.95;2.63;;;20.30;99.90;;;;;;5069542;28;20391;-58
2021/07/03 06:24:49;;;;;;;5.68;2.83;;;20.20;99.90;;;;;;5079489;28;20032;-60
2021/07/03 06:27:15;;;;;;;2.88;2.20;;;20.20;99.90;;;;;;5074788;28;20032;-58
2021/07/03 06:29:41;;;;;;;4.40;3.05;;;20.50;99.90;;;;;;5072817;28;20039;-58
2021/07/03 06:32:07;;;;;;;2.78;2.45;;;20.40;99.90;;;;;;5073703;28;20402;-57
2021/07/03 06:34:33;;;;;;;2.92;2.22;;;20.60;99.90;;;;;;5059121;28;20143;-57
2021/07/03 06:36:59;;;;;;;3.20;2.05;;;20.60;99.90;;;;;;5079846;28;20131;-57
2021/07/03 06:39:25;;;;;;;3.80;2.83;;;20.70;99.90;;;;;;5062784;28;20613;-59
2021/07/03 06:41:51;;;;;;;3.75;2.88;;;20.70;99.90;;;;;;5071134;28;20110;-58
2021/07/03 06:44:17;;;;;;;3.25;2.60;;;20.40;99.90;;;;;;5068402;28;20372;-58
2021/07/03 06:46:43;;;;;;;4.10;2.65;;;20.50;99.90;;;;;;5072377;28;20025;-57
2021/07/03 06:49:08;;;;;;;2.67;2.30;;;20.40;99.90;;;;;;5074331;28;20040;-58
2021/07/03 06:51:34;;;;;;;2.50;2.10;;;20.90;99.90;;;;;;5071488;28;20111;-58
2021/07/03 06:54:03;;;;;;;3.13;1.98;;;21.20;99.90;;;;;;5074727;28;20107;-60
2021/07/03 06:56:28;;;;;;;3.15;2.45;;;21.50;99.90;;;;;;5056995;28;20039;-59
2021/07/03 06:58:54;;;;;;;3.05;2.45;;;21.60;99.90;;;;;;5055268;28;20115;-58
2021/07/03 07:01:20;;;;;;;4.00;2.50;;;21.00;99.90;;;;;;5075417;28;20082;-58
2021/07/03 07:03:46;;;;;;;3.05;2.35;;;21.00;99.90;;;;;;5079371;28;20036;-57
2021/07/03 07:06:12;;;;;;;2.72;2.38;;;20.80;99.90;;;;;;5041855;28;20559;-59
2021/07/03 07:08:37;;;;;;;4.10;2.65;;;20.90;99.90;;;;;;5073384;28;20467;-57
2021/07/03 07:11:04;;;;;;;4.38;2.92;;;20.90;99.90;;;;;;5078621;28;20032;-59
2021/07/03 07:13:30;;;;;;;4.40;2.63;;;21.20;99.90;;;;;;5066942;28;20032;-58
2021/07/03 07:15:55;;;;;;;3.40;2.53;;;21.30;99.90;;;;;;5064167;28;20444;-58
2021/07/03 07:18:21;;;;;;;3.83;2.42;;;21.50;99.90;;;;;;5061631;28;20024;-58
2021/07/03 07:20:47;;;;;;;3.45;2.55;;;21.90;99.90;;;;;;5050813;28;20115;-58
2021/07/03 07:23:13;;;;;;;3.47;2.45;;;22.10;99.90;;;;;;5056533;28;20132;-58
2021/07/03 07:25:40;;;;;;;4.07;2.90;;;;;;;;;;5057120;28;20049;-57
2021/07/03 07:28:05;;;;;;;2.67;2.10;;;22.60;99.90;;;;;;5059750;28;20031;-57
2021/07/03 07:30:31;;;;;;;3.92;2.70;;;22.60;99.90;;;;;;5058172;28;20049;-57
2021/07/03 07:32:57;;;;;;;3.60;2.60;;;22.20;99.90;;;;;;5057412;28;20036;-57
2021/07/03 07:35:23;;;;;;;3.97;2.95;;;22.10;99.90;;;;;;5058245;28;20083;-58
2021/07/03 07:37:49;;;;;;;7.68;2.75;;;22.10;99.90;;;;;;5059408;28;20084;-57
2021/07/03 07:40:17;;;;;;;3.88;3.08;;;21.40;99.90;;;;;;5053055;28;20515;-58
2021/07/03 07:42:42;;;;;;;3.65;2.70;;;21.30;99.90;;;;;;5059704;28;20507;-57
2021/07/03 07:45:09;;;;;;;3.30;3.00;;;21.50;99.90;;;;;;5052708;28;20058;-58
2021/07/03 07:47:35;;;;;;;6.07;2.95;;;21.60;99.90;;;;;;5018172;28;20037;-57
2021/07/03 07:50:01;;;;;;;3.83;2.70;;;21.40;99.90;;;;;;5055206;28;20119;-58
2021/07/03 07:52:27;;;;;;;4.80;3.35;;;22.00;99.90;;;;;;5052387;28;20085;-58
2021/07/03 07:54:53;;;;;;;4.97;3.28;;;21.90;99.90;;;;;;5063566;28;20484;-58
2021/07/03 07:57:21;;;;;;;3.47;2.75;;;22.00;99.90;;;;;;5050740;28;20033;-58
2021/07/03 07:59:48;;;;;;;5.38;2.92;;;22.20;99.90;;;;;;5023421;28;20044;-59
2021/07/03 08:02:14;;;;;;;3.88;3.03;;;22.50;99.90;;;;;;5068289;28;20040;-57
2021/07/03 08:04:40;;;;;;;4.75;3.42;;;22.30;99.90;;;;;;5070968;28;20036;-57
2021/07/03 08:07:06;;;;;;;3.60;3.03;;;;;;;;;;5012146;28;20043;-58
2021/07/03 08:09:32;;;;;;;2.85;2.33;;;;;;;;;;5018762;28;20145;-59
2021/07/03 08:11:58;;;;;;;2.70;2.35;;;22.80;99.90;;;;;;5066675;28;20044;-60
2021/07/03 08:14:25;;;;;;;2.92;2.38;;;22.50;99.90;;;;;;5034192;28;20140;-59
2021/07/03 08:16:51;;;;;;;4.45;3.08;;;22.60;99.90;;;;;;5060983;28;20442;-58
2021/07/03 08:19:17;;;;;;;3.95;2.42;;;22.90;99.90;;;;;;5070343;28;20050;-58
2021/07/03 08:21:43;;;;;;;3.33;3.00;;;22.70;99.90;;;;;;5068396;28;20036;-58
2021/07/03 08:24:09;;;;;;;5.75;3.53;;;22.50;99.90;;;;;;5076837;28;20438;-57
2021/07/03 08:26:35;;;;;;;3.42;2.47;;;22.50;99.90;;;;;;5075252;28;20036;-58
2021/07/03 08:29:02;;;;;;;3.60;2.70;;;22.80;99.90;;;;;;5086296;28;20031;-58
2021/07/03 08:31:28;;;;;;;3.00;2.70;;;22.60;99.90;;;;;;5073730;28;20383;-58
2021/07/03 08:33:53;;;;;;;4.63;2.97;;;22.70;99.90;;;;;;5060718;28;20041;-59
2021/07/03 08:36:19;;;;;;;4.40;2.70;;;22.60;99.90;;;;;;5081769;28;20529;-58
2021/07/03 08:38:45;;;;;;;5.05;2.75;;;22.90;99.90;;;;;;5080598;28;20028;-59
2021/07/03 08:41:12;;;;;;;3.28;2.92;;;23.00;99.90;;;;;;5077832;28;20039;-58
2021/07/03 08:43:46;;;;;;;6.15;2.70;;;23.40;99.90;;;;;;5076093;28;20082;-59
2021/07/03 08:46:12;;;;;;;3.70;2.53;;;;;;;;;;5072868;28;20044;-62
2021/07/03 08:48:38;;;;;;;3.03;2.55;;;;;;;;;;5063421;28;20071;-58
2021/07/03 08:51:04;;;;;;;4.80;2.78;;;;;;;;;;5082446;28;20047;-59
2021/07/03 08:53:30;;;;;;;2.78;2.30;;;;;;;;;;5073147;28;20502;-59
2021/07/03 08:55:58;;;;;;;2.47;2.22;;;;;;;;;;5082500;28;20579;-59
2021/07/03 08:58:24;;;;;;;4.25;2.80;;;26.30;97.00;;;;;;5083164;28;20039;-58
2021/07/03 09:00:51;;;;;;;3.85;2.50;;;25.00;98.20;;;;;;5077264;28;20028;-58
2021/07/03 09:03:21;;;;;;;7.10;2.40;;;26.60;97.10;;;;;;5071105;28;20032;-58
2021/07/03 09:05:54;;;;;;;2.60;2.25;;;;;;;;;;5081983;28;20035;-58
2021/07/03 09:08:24;;;;;;;4.70;2.40;;;26.20;95.20;;;;;;5079837;28;20056;-59
2021/07/03 09:11:08;;;;;;;8.05;2.42;;;28.10;95.40;;;;;;5072722;28;20123;-59
2021/07/03 09:13:36;;;;;;;4.60;2.40;;;27.70;93.70;;;;;;5057648;28;20040;-58
2021/07/03 09:16:02;;;;;;;4.45;2.40;;;26.50;94.80;;;;;;5055838;28;20115;-58
2021/07/03 09:18:30;;;;;;;3.90;2.50;;;25.20;95.50;;;;;;5017394;28;20036;-58
2021/07/03 09:20:58;;;;;;;3.58;2.15;;;25.20;96.70;;;;;;5034935;28;20036;-58
2021/07/03 09:23:31;;;;;;;4.30;2.65;;;28.20;93.10;;;;;;5032876;28;20559;-59
2021/07/03 09:26:04;;;;;;;3.42;2.50;;;28.60;92.20;;;;;;5061968;28;20037;-58
2021/07/03 09:28:37;;;;;;;3.58;2.40;;;29.40;89.80;;;;;;5049976;28;20091;-59
2021/07/03 09:31:04;;;;;;;4.45;2.05;;;29.20;89.20;;;;;;5057622;28;20040;-59
2021/07/03 09:33:32;;;;;;;2.75;2.30;;;32.20;83.40;;;;;;5054676;28;20036;-59
2021/07/03 09:35:58;;;;;;;3.55;2.22;;;29.20;86.70;;;;;;5062268;28;20124;-59
2021/07/03 09:38:30;;;;;;;9.65;2.70;;;27.10;90.40;;;;;;5039208;28;20131;-60
2021/07/03 09:41:13;;;;;;;2.40;2.05;;;27.30;90.50;;;;;;5055085;28;20119;-59
2021/07/03 09:43:55;;;;;;;3.13;1.65;;;29.10;90.10;;;;;;5068184;28;20056;-59
2021/07/03 09:46:25;;;;;;;2.78;1.90;;;28.00;87.10;;;;;;5075515;28;20046;-59
2021/07/03 09:48:57;;;;;;;2.20;2.00;;;29.60;88.40;;;;;;5081909;28;20033;-59
2021/07/03 09:51:36;;;;;;;3.17;2.10;;;29.50;85.70;;;;;;5087984;28;20032;-59
2021/07/03 09:54:03;;;;;;;3.38;2.63;;;30.40;82.90;;;;;;5072418;28;20040;-59
2021/07/03 09:56:29;;;;;;;2.97;1.92;;;30.80;82.20;;;;;;5077413;28;20052;-59
2021/07/03 09:58:55;;;;;;;2.33;2.05;;;30.90;81.60;;;;;;5077877;28;20481;-59
2021/07/03 10:01:21;;;;;;;4.75;1.98;;;30.70;79.90;;;;;;5078063;28;20055;-59
2021/07/03 10:03:48;;;;;;;4.72;2.17;;;31.40;77.50;;;;;;5071631;28;20380;-59
2021/07/03 10:06:23;;;;;;;3.25;2.58;;;32.60;79.30;;;;;;5071229;28;20028;-59
2021/07/03 10:08:52;;;;;;;4.05;2.20;;;;;;;;;;5074063;28;20508;-59
2021/07/03 10:11:22;;;;;;;2.53;2.10;;;32.00;73.20;;;;;;5074541;28;20037;-59
2021/07/03 10:14:04;;;;;;;2.45;1.90;;;30.50;75.00;;;;;;5081064;28;20037;-59
2021/07/03 10:16:31;;;;;;;2.40;1.95;;;28.20;78.60;;;;;;5077424;28;20039;-59
2021/07/03 10:19:14;;;;;;;3.08;2.03;;;28.60;81.50;;;;;;5079890;28;20047;-59
2021/07/03 10:21:43;;;;;;;3.58;2.17;;;28.50;85.10;;;;;;5046597;28;20047;-60
2021/07/03 10:24:20;;;;;;;3.85;2.00;;;;;;;;;;5066395;28;20025;-59
2021/07/03 10:26:47;;;;;;;2.47;1.65;;;;;;;;;;5069103;28;20024;-59
2021/07/03 10:29:18;;;;;;;4.57;2.15;;;31.00;96.40;;;;;;5058887;28;20024;-59
2021/07/03 10:31:45;;;;;;;3.13;1.98;;;28.00;78.70;;;;;;5084578;28;20039;-59
2021/07/03 10:34:11;;;;;;;5.07;1.90;;;29.40;79.30;;;;;;5073364;28;20048;-59
2021/07/03 10:36:37;;;;;;;3.40;1.80;;;32.60;73.30;;;;;;5079546;28;20032;-59
2021/07/03 10:39:04;;;;;;;2.95;2.05;;;;;;;;;;5061178;28;20097;-59
2021/07/03 10:41:31;;;;;;;3.03;2.10;;;29.20;74.10;;;;;;5069208;28;20686;-59
2021/07/03 10:44:13;;;;;;;3.67;2.00;;;29.40;80.00;;;;;;5084254;28;20383;-60
2021/07/03 10:46:44;;;;;;;2.70;1.77;;;30.60;77.70;;;;;;5072028;28;20029;-59
2021/07/03 10:49:20;;;;;;;1.77;1.67;;;31.20;74.10;;;;;;5064551;28;20039;-59
2021/07/03 10:51:48;;;;;;;1.65;1.55;;;33.90;71.40;;;;;;5081414;28;20457;-60
2021/07/03 10:54:24;;;;;;;2.10;1.58;;;;;;;;;;5071521;28;20035;-59
2021/07/03 10:57:05;;;;;;;3.63;1.83;;;37.80;76.80;;;;;;5080294;28;20028;-59
2021/07/03 10:59:37;;;;;;;2.03;1.63;;;36.30;75.20;;;;;;5078146;28;20032;-59
2021/07/03 11:02:18;;;;;;;2.88;1.60;;;30.80;68.40;;;;;;5076518;28;20093;-59
2021/07/03 11:04:55;;;;;;;2.67;1.90;;;29.00;74.50;;;;;;5079510;28;20119;-60
2021/07/03 11:07:26;;;;;;;2.33;2.00;;;28.70;76.30;;;;;;5086385;28;20536;-59
2021/07/03 11:10:03;;;;;;;3.42;1.80;;;29.90;75.80;;;;;;5078623;28;20484;-60
2021/07/03 11:12:29;;;;;;;3.35;1.70;;;30.70;72.30;;;;;;5077957;28;20494;-59
2021/07/03 11:14:56;;;;;;;2.42;1.70;;;;;;;;;;5037542;28;20045;-61
2021/07/03 11:17:25;;;;;;;2.22;1.98;;;36.70;64.40;;;;;;5071438;28;20021;-59
2021/07/03 11:19:52;;;;;;;4.13;1.90;;;32.80;66.30;;;;;;5078778;28;20060;-59
2021/07/03 11:22:23;;;;;;;2.08;1.80;;;33.40;68.30;;;;;;5078998;28;20167;-60
2021/07/03 11:24:57;;;;;;;3.78;1.60;;;35.30;64.10;;;;;;5060241;28;20037;-59
2021/07/03 11:27:34;;;;;;;3.08;1.90;;;37.60;62.60;;;;;;5074641;28;20028;-60
2021/07/03 11:30:05;;;;;;;2.53;2.03;;;34.80;60.80;;;;;;5048204;28;20491;-59
2021/07/03 11:32:31;;;;;;;2.15;1.83;;;35.60;62.00;;;;;;5064994;28;20052;-60
2021/07/03 11:35:03;;;;;;;2.85;1.83;;;37.30;60.90;;;;;;5079024;28;20462;-59
2021/07/03 11:37:32;;;;;;;2.38;1.77;;;36.60;59.40;;;;;;5075588;28;20600;-60
2021/07/03 11:39:59;;;;;;;2.00;1.80;;;34.50;60.80;;;;;;5068959;28;20068;-59
2021/07/03 11:42:27;;;;;;;3.58;1.50;;;34.20;63.20;;;;;;5071293;28;20091;-59
2021/07/03 11:44:53;;;;;;;3.20;1.70;;;34.80;60.90;;;;;;5072121;28;20028;-59
2021/07/03 11:47:19;;;;;;;3.28;1.80;;;33.90;62.30;;;;;;5068428;28;20044;-59
2021/07/03 11:49:45;;;;;;;4.72;2.10;;;34.40;63.90;;;;;;5067962;28;20483;-59
2021/07/03 11:52:11;;;;;;;4.72;2.10;;;;;;;;;;5068278;28;20044;-60
2021/07/03 11:54:37;;;;;;;2.05;1.85;;;;;;;;;;5054075;28;20040;-60
2021/07/03 11:57:03;;;;;;;2.83;1.60;;;33.50;91.10;;;;;;5079008;28;20622;-59
2021/07/03 11:59:29;;;;;;;2.53;2.05;;;;;;;;;;5071677;28;20434;-59
2021/07/03 12:01:55;;;;;;;2.05;1.60;;;33.10;78.60;;;;;;5081562;28;20033;-59
2021/07/03 12:04:21;;;;;;;1.83;1.70;;;32.80;89.50;;;;;;5063390;28;20040;-59
2021/07/03 12:06:57;;;;;;;2.30;1.77;;;33.00;64.30;;;;;;5064323;28;20063;-59
2021/07/03 12:09:31;;;;;;;2.35;1.83;;;34.60;63.30;;;;;;5070985;28;20036;-59
2021/07/03 12:11:57;;;;;;;3.25;1.88;;;34.80;61.10;;;;;;5078341;28;20031;-60
2021/07/03 12:14:26;;;;;;;2.03;1.58;;;34.40;60.90;;;;;;5081495;28;20043;-59
2021/07/03 12:16:57;;;;;;;4.07;1.80;;;33.40;61.80;;;;;;5069915;28;20442;-59
2021/07/03 12:19:23;;;;;;;2.03;1.70;;;31.20;64.90;;;;;;5071449;28;20040;-59
2021/07/03 12:21:49;;;;;;;2.28;2.08;;;30.20;66.40;;;;;;5084769;28;20031;-59
2021/07/03 12:24:15;;;;;;;1.88;1.73;;;29.10;69.40;;;;;;5083335;28;20040;-59
2021/07/03 12:26:49;;;;;;;3.03;1.83;;;29.20;70.70;;;;;;5085937;28;20119;-59
2021/07/03 12:29:36;;;;;;;1.83;1.73;;;28.90;70.10;;;;;;5073522;28;20028;-59
2021/07/03 12:32:12;;;;;;;2.58;2.00;;;28.60;72.00;;;;;;5066887;28;20048;-61
2021/07/03 12:34:40;;;;;;;3.75;1.88;;;32.20;70.80;;;;;;5067236;28;20053;-59
2021/07/03 12:37:11;;;;;;;6.22;1.90;;;31.40;72.40;;;;;;5064766;28;20032;-59
2021/07/03 12:39:38;;;;;;;3.45;2.00;;;34.70;80.60;;;;;;5053459;28;20041;-60
2021/07/03 12:42:10;;;;;;;2.03;1.55;;;36.30;60.20;;;;;;5024148;28;20083;-58
2021/07/03 12:44:40;;;;;;;2.35;2.10;;;;;;;;;;5014587;28;20029;-59
2021/07/03 12:47:08;;;;;;;3.47;1.67;;;;;;;;;;5028266;28;20144;-59
2021/07/03 12:49:41;;;;;;;4.47;1.98;;;37.30;56.70;;;;;;4997523;28;20045;-59
2021/07/03 12:52:11;;;;;;;3.13;2.53;;;34.20;57.50;;;;;;4997278;28;20501;-59
2021/07/03 12:54:37;;;;;;;3.25;2.17;;;34.70;59.80;;;;;;5030126;28;20435;-60